createdAt,value
2018-11-04T00:35:07.342Z,24.90
2018-11-04T00:42:34.238Z,26.87
2018-11-04T00:45:03.369Z,27.20
2018-11-04T00:47:32.468Z,26.57
2018-11-04T00:50:03.027Z,30.05
2018-11-04T00:52:32.267Z,28.30
2018-11-04T00:55:01.010Z,27.60
2018-11-04T00:57:29.954Z,26.20
2018-11-04T00:59:58.808Z,27.00
2018-11-04T01:02:28.022Z,26.40
2018-11-04T01:04:57.155Z,25.87
2018-11-04T01:07:26.427Z,27.93
2018-11-04T01:09:55.322Z,26.00
2018-11-04T01:12:24.381Z,27.85
2018-11-04T01:14:53.296Z,25.30
2018-11-04T01:17:22.152Z,27.83
2018-11-04T01:19:51.426Z,26.70
2018-11-04T01:22:20.586Z,26.83
2018-11-04T01:24:49.348Z,29.47
2018-11-04T01:27:18.293Z,26.85
2018-11-04T01:29:47.514Z,28.67
2018-11-04T01:32:16.736Z,27.47
2018-11-04T01:34:45.663Z,26.40
2018-11-04T01:37:14.493Z,26.80
2018-11-04T01:39:43.584Z,25.07
2018-11-04T01:42:12.807Z,25.95
2018-11-04T01:44:41.810Z,29.30
2018-11-04T01:47:10.682Z,29.90
2018-11-04T01:49:39.883Z,24.90
2018-11-04T01:52:09.180Z,26.70
2018-11-04T01:54:38.021Z,27.20
2018-11-04T01:57:07.119Z,27.23
2018-11-04T01:59:36.107Z,27.33
2018-11-04T02:02:05.671Z,26.70
2018-11-04T02:07:02.944Z,26.30
2018-11-04T02:12:00.524Z,26.37
2018-11-04T02:14:29.339Z,26.27
2018-11-04T02:16:58.039Z,25.30
2018-11-04T02:19:27.727Z,25.50
2018-11-04T02:21:56.567Z,24.60
2018-11-04T02:24:25.736Z,23.50
2018-11-04T02:26:54.498Z,24.10
2018-11-04T02:29:23.641Z,26.40
2018-11-04T02:31:52.815Z,24.20
2018-11-04T02:34:22.134Z,23.77
2018-11-04T02:36:51.497Z,23.87
2018-11-04T02:39:20.521Z,22.00
2018-11-04T02:41:49.406Z,22.83
2018-11-04T02:44:18.280Z,23.10
2018-11-04T02:46:47.264Z,22.17
2018-11-04T02:49:16.354Z,22.10
2018-11-04T02:51:45.518Z,21.20
2018-11-04T02:54:14.467Z,20.47
2018-11-04T02:56:44.642Z,21.03
2018-11-04T02:59:13.687Z,19.30
2018-11-04T03:01:42.704Z,21.17
2018-11-04T03:04:11.954Z,19.40
2018-11-04T03:06:40.795Z,17.47
2018-11-04T03:09:10.282Z,19.63
2018-11-04T03:11:39.294Z,17.10
2018-11-04T03:14:08.324Z,17.37
2018-11-04T03:16:37.438Z,18.63
2018-11-04T03:19:06.753Z,16.33
2018-11-04T03:21:35.977Z,17.63
2018-11-04T03:24:05.021Z,15.10
2018-11-04T03:26:34.257Z,15.50
2018-11-04T03:29:03.376Z,17.65
2018-11-04T03:31:32.635Z,13.90
2018-11-04T03:34:01.670Z,17.70
2018-11-04T03:36:30.589Z,17.27
2018-11-04T03:38:59.918Z,16.75
2018-11-04T03:41:29.715Z,17.27
2018-11-04T03:43:58.826Z,18.73
2018-11-04T03:46:28.135Z,18.20
2018-11-04T03:48:57.967Z,18.67
2018-11-04T03:51:26.962Z,16.60
2018-11-04T03:53:56.878Z,17.80
2018-11-04T03:56:26.149Z,16.47
2018-11-04T03:58:55.372Z,16.90
2018-11-04T04:01:24.483Z,17.80
2018-11-04T04:03:53.909Z,16.73
2018-11-04T04:06:22.936Z,16.80
2018-11-04T04:08:53.092Z,18.90
2018-11-04T04:11:22.274Z,17.77
2018-11-04T04:13:51.300Z,18.87
2018-11-04T04:16:20.365Z,17.33
2018-11-04T04:18:49.601Z,17.43
2018-11-04T04:21:18.713Z,17.50
2018-11-04T04:23:47.998Z,17.10
2018-11-04T04:26:17.191Z,16.20
2018-11-04T04:28:46.487Z,17.90
2018-11-04T04:31:15.691Z,19.43
2018-11-04T04:33:44.740Z,17.93
2018-11-04T04:36:14.044Z,19.20
2018-11-04T04:38:43.287Z,20.00
2018-11-04T04:41:12.498Z,20.13
2018-11-04T04:43:41.617Z,19.03
2018-11-04T04:46:10.770Z,17.73
2018-11-04T04:48:39.817Z,20.80
2018-11-04T04:51:09.089Z,18.87
2018-11-04T04:53:38.204Z,19.90
2018-11-04T04:56:07.682Z,20.07
2018-11-04T05:03:33.393Z,18.83
2018-11-04T05:08:31.405Z,17.97
2018-11-04T05:11:00.480Z,20.17
2018-11-04T05:13:29.803Z,18.80
2018-11-04T05:15:58.991Z,16.20
2018-11-04T05:18:28.709Z,16.70
2018-11-04T05:20:57.865Z,18.10
2018-11-04T05:23:26.919Z,18.20
2018-11-04T05:25:56.538Z,15.57
2018-11-04T05:28:25.644Z,15.17
2018-11-04T05:30:56.317Z,15.20
2018-11-04T05:33:25.586Z,16.23
2018-11-04T05:35:56.632Z,18.07
2018-11-04T05:38:26.080Z,15.43
2018-11-04T05:40:55.361Z,23.63
2018-11-04T05:43:25.211Z,23.50
2018-11-04T05:45:55.141Z,24.13
2018-11-04T05:48:24.304Z,21.33
2018-11-04T05:50:53.300Z,16.23
2018-11-04T05:53:22.432Z,13.37
2018-11-04T05:55:51.415Z,13.03
2018-11-04T05:58:20.475Z,11.83
2018-11-04T06:00:49.899Z,11.33
2018-11-04T06:03:19.221Z,11.37
2018-11-04T06:05:48.246Z,12.40
2018-11-04T06:08:17.338Z,11.57
2018-11-04T06:10:46.420Z,11.83
2018-11-04T06:13:15.418Z,10.63
2018-11-04T06:15:44.451Z,10.57
2018-11-04T06:18:14.004Z,10.80
2018-11-04T06:20:42.955Z,10.03
2018-11-04T06:23:12.746Z,10.23
2018-11-04T06:25:41.892Z,10.00
2018-11-04T06:28:10.981Z,9.20
2018-11-04T06:30:41.752Z,9.40
2018-11-04T06:33:11.337Z,9.47
2018-11-04T06:35:41.125Z,9.97
2018-11-04T06:38:10.429Z,9.60
2018-11-04T06:40:40.136Z,10.23
2018-11-04T06:43:09.325Z,9.23
2018-11-04T06:45:38.285Z,8.40
2018-11-04T06:48:09.038Z,7.80
2018-11-04T06:50:38.042Z,8.30
2018-11-04T06:53:07.252Z,9.27
2018-11-04T06:55:36.464Z,9.07
2018-11-04T06:58:06.318Z,8.47
2018-11-04T07:00:35.778Z,8.70
2018-11-04T07:03:05.293Z,9.17
2018-11-04T07:05:34.517Z,9.57
2018-11-04T07:08:03.882Z,9.03
2018-11-04T07:10:33.389Z,9.40
2018-11-04T07:13:03.212Z,9.77
2018-11-04T07:15:32.681Z,6.40
2018-11-04T07:18:01.800Z,7.10
2018-11-04T07:20:30.977Z,8.60
2018-11-04T07:23:00.511Z,8.93
2018-11-04T07:25:30.654Z,10.77
2018-11-04T07:27:59.531Z,8.80
2018-11-04T07:30:28.290Z,11.10
2018-11-04T07:32:57.070Z,6.53
2018-11-04T07:35:26.050Z,6.50
2018-11-04T07:37:54.960Z,8.53
2018-11-04T07:40:23.980Z,7.10
2018-11-04T07:42:52.851Z,7.37
2018-11-04T07:45:21.779Z,6.70
2018-11-04T07:47:51.009Z,6.50
2018-11-04T07:50:21.492Z,6.23
2018-11-04T07:52:50.701Z,5.13
2018-11-04T07:55:19.710Z,5.10
2018-11-04T07:57:48.706Z,6.23
2018-11-04T08:00:17.664Z,7.97
2018-11-04T08:02:48.247Z,7.93
2018-11-04T08:05:16.955Z,17.60
2018-11-04T08:07:46.283Z,18.07
2018-11-04T08:10:15.284Z,12.87
2018-11-04T08:12:44.071Z,10.00
2018-11-04T08:15:13.212Z,8.80
2018-11-04T08:17:41.940Z,6.50
2018-11-04T08:20:11.216Z,5.60
2018-11-04T08:22:40.607Z,5.33
2018-11-04T08:25:09.831Z,5.77
2018-11-04T08:27:38.619Z,6.13
2018-11-04T08:30:08.645Z,5.53
2018-11-04T08:32:37.823Z,5.50
2018-11-04T08:35:07.970Z,5.47
2018-11-04T08:37:36.966Z,4.97
2018-11-04T08:40:08.147Z,5.90
2018-11-04T08:42:37.120Z,5.65
2018-11-04T08:45:08.181Z,5.40
2018-11-04T08:47:37.563Z,5.10
2018-11-04T08:50:08.281Z,4.15
2018-11-04T08:52:37.383Z,4.10
2018-11-04T08:55:07.822Z,4.67
2018-11-04T08:57:37.262Z,4.70
2018-11-04T09:00:08.820Z,7.90
2018-11-04T09:02:37.525Z,6.10
2018-11-04T09:05:06.734Z,5.10
2018-11-04T09:07:35.697Z,5.35
2018-11-04T09:10:06.715Z,4.85
2018-11-04T09:12:35.686Z,3.97
2018-11-04T09:15:04.427Z,3.90
2018-11-04T09:17:33.245Z,4.10
2018-11-04T09:20:02.422Z,4.93
2018-11-04T09:22:31.579Z,4.43
2018-11-04T09:25:00.434Z,4.20
2018-11-04T09:27:29.920Z,5.07
2018-11-04T09:29:58.678Z,6.57
2018-11-04T09:32:27.397Z,6.10
2018-11-04T09:34:56.736Z,12.50
2018-11-04T09:37:25.626Z,10.07
2018-11-04T09:39:54.378Z,7.80
2018-11-04T09:42:23.150Z,5.00
2018-11-04T09:44:52.180Z,5.00
2018-11-04T09:47:21.305Z,5.33
2018-11-04T09:49:50.238Z,5.30
2018-11-04T09:52:19.545Z,4.13
2018-11-04T09:54:50.127Z,4.53
2018-11-04T09:57:20.573Z,4.63
2018-11-04T09:59:49.400Z,4.40
2018-11-04T10:02:18.316Z,4.50
2018-11-04T10:04:47.255Z,4.27
2018-11-04T10:07:16.695Z,4.60
2018-11-04T10:09:45.795Z,4.30
2018-11-04T10:12:14.783Z,4.97
2018-11-04T10:14:44.107Z,4.50
2018-11-04T10:17:12.853Z,7.40
2018-11-04T10:19:43.659Z,4.50
2018-11-04T10:22:12.909Z,9.00
2018-11-04T10:24:41.821Z,5.60
2018-11-04T10:27:10.682Z,5.35
2018-11-04T10:29:39.914Z,5.00
2018-11-04T10:32:08.690Z,5.33
2018-11-04T10:34:37.519Z,5.10
2018-11-04T10:37:06.855Z,4.80
2018-11-04T10:39:36.077Z,5.97
2018-11-04T10:42:06.114Z,5.30
2018-11-04T10:44:35.795Z,5.77
2018-11-04T10:47:07.970Z,6.40
2018-11-04T10:49:36.741Z,5.33
2018-11-04T10:52:05.443Z,5.17
2018-11-04T10:54:34.246Z,5.20
2018-11-04T10:57:03.015Z,5.90
2018-11-04T10:59:32.166Z,5.90
2018-11-04T11:02:01.250Z,5.70
2018-11-04T11:04:30.171Z,6.33
2018-11-04T11:06:59.998Z,5.70
2018-11-04T11:09:28.970Z,6.27
2018-11-04T11:11:57.552Z,7.00
2018-11-04T11:14:27.542Z,6.67
2018-11-04T11:16:56.196Z,5.90
2018-11-04T11:19:25.147Z,6.10
2018-11-04T11:21:53.657Z,6.17
2018-11-04T11:24:22.485Z,7.60
2018-11-04T11:26:51.180Z,7.57
2018-11-04T11:29:19.747Z,7.00
2018-11-04T11:31:48.374Z,6.30
2018-11-04T11:34:16.997Z,7.83
2018-11-04T11:36:45.590Z,7.07
2018-11-04T11:39:14.512Z,7.30
2018-11-04T11:41:57.581Z,7.27
2018-11-04T11:44:26.210Z,7.10
2018-11-04T11:46:54.713Z,6.67
2018-11-04T11:49:23.381Z,7.80
2018-11-04T11:51:51.999Z,9.20
2018-11-04T11:54:20.590Z,7.83
2018-11-04T11:56:49.199Z,7.50
2018-11-04T11:59:17.808Z,7.80
2018-11-04T12:01:46.403Z,8.37
2018-11-04T12:04:14.984Z,8.67
2018-11-04T12:06:43.508Z,8.57
2018-11-04T12:09:12.596Z,8.33
2018-11-04T12:11:41.140Z,8.80
2018-11-04T12:14:09.756Z,7.93
2018-11-04T12:16:39.623Z,9.07
2018-11-04T12:19:09.589Z,7.50
2018-11-04T12:21:38.638Z,8.10
2018-11-04T12:24:08.422Z,9.60
2018-11-04T12:26:37.051Z,9.30
2018-11-04T12:29:06.890Z,9.00
2018-11-04T12:31:35.699Z,8.20
2018-11-04T12:34:04.878Z,8.37
2018-11-04T12:36:33.532Z,9.33
2018-11-04T12:39:02.314Z,8.53
2018-11-04T12:41:31.051Z,10.37
2018-11-04T12:43:59.779Z,10.07
2018-11-04T12:46:28.464Z,10.10
2018-11-04T12:48:57.149Z,8.80
2018-11-04T12:51:26.697Z,8.40
2018-11-04T12:53:55.212Z,9.23
2018-11-04T12:56:24.874Z,10.23
2018-11-04T12:58:53.526Z,9.53
2018-11-04T13:01:22.187Z,9.60
2018-11-04T13:03:51.435Z,10.17
2018-11-04T13:06:20.342Z,9.27
2018-11-04T13:08:49.193Z,9.60
2018-11-04T13:11:18.903Z,8.73
2018-11-04T13:13:48.160Z,8.93
2018-11-04T13:16:17.652Z,9.70
2018-11-04T13:18:47.008Z,10.60
2018-11-04T13:21:16.717Z,8.97
2018-11-04T13:23:46.026Z,9.67
2018-11-04T13:26:15.430Z,10.53
2018-11-04T13:28:44.798Z,10.93
2018-11-04T13:31:14.457Z,12.17
2018-11-04T13:33:44.531Z,10.20
2018-11-04T13:36:13.733Z,9.50
2018-11-04T13:38:42.939Z,10.37
2018-11-04T13:41:12.050Z,8.47
2018-11-04T13:43:41.246Z,9.97
2018-11-04T13:46:10.761Z,12.27
2018-11-04T13:48:39.957Z,11.87
2018-11-04T13:51:10.321Z,10.60
2018-11-04T13:53:38.924Z,11.80
2018-11-04T13:56:07.603Z,10.93
2018-11-04T13:58:36.451Z,11.53
2018-11-04T14:01:05.173Z,11.53
2018-11-04T14:03:33.775Z,11.30
2018-11-04T14:06:02.350Z,11.03
2018-11-04T14:08:30.989Z,10.20
2018-11-04T14:10:59.561Z,11.30
2018-11-04T14:13:28.057Z,9.67
2018-11-04T14:15:56.647Z,11.90
2018-11-04T14:18:25.264Z,11.80
2018-11-04T14:20:53.820Z,10.67
2018-11-04T14:23:22.437Z,11.90
2018-11-04T14:25:51.029Z,12.50
2018-11-04T14:28:19.743Z,12.20
2018-11-04T14:30:48.439Z,11.90
2018-11-04T14:33:16.979Z,11.80
2018-11-04T14:35:45.496Z,12.67
2018-11-04T14:38:14.172Z,10.97
2018-11-04T14:40:43.259Z,11.97
2018-11-04T14:43:12.882Z,12.47
2018-11-04T14:45:42.013Z,13.57
2018-11-04T14:48:10.563Z,13.60
2018-11-04T14:50:40.483Z,12.40
2018-11-04T14:53:09.084Z,15.97
2018-11-04T14:55:37.640Z,16.10
2018-11-04T14:58:06.284Z,14.90
2018-11-04T15:00:36.699Z,14.00
2018-11-04T15:03:06.562Z,14.17
2018-11-04T15:05:35.145Z,15.40
2018-11-04T15:08:03.600Z,13.80
2018-11-04T15:10:32.172Z,17.03
2018-11-04T15:13:00.865Z,14.73
2018-11-04T15:15:29.417Z,15.33
2018-11-04T15:17:58.071Z,15.70
2018-11-04T15:20:26.788Z,15.77
2018-11-04T15:22:55.663Z,20.00
2018-11-04T15:25:24.276Z,15.67
2018-11-04T15:27:52.942Z,13.60
2018-11-04T15:30:21.854Z,14.00
2018-11-04T15:32:50.521Z,13.50
2018-11-04T15:35:19.443Z,13.90
2018-11-04T15:37:48.731Z,14.43
2018-11-04T15:40:17.782Z,14.00
2018-11-04T15:42:46.399Z,14.40
2018-11-04T15:45:15.887Z,15.47
2018-11-04T15:47:44.450Z,15.67
2018-11-04T15:50:17.570Z,14.80
2018-11-04T15:52:46.497Z,15.20
2018-11-04T15:55:15.648Z,13.77
2018-11-04T15:57:44.185Z,14.17
2018-11-04T16:00:14.341Z,14.50
2018-11-04T16:02:43.004Z,15.70
2018-11-04T16:05:12.520Z,14.90
2018-11-04T16:07:41.538Z,14.40
2018-11-04T16:10:11.791Z,14.87
2018-11-04T16:12:42.074Z,16.13
2018-11-04T16:15:13.610Z,14.83
2018-11-04T16:17:43.372Z,16.30
2018-11-04T16:20:14.730Z,20.67
2018-11-04T16:22:44.409Z,17.77
2018-11-04T16:25:14.142Z,17.20
2018-11-04T16:27:43.495Z,17.30
2018-11-04T16:30:13.250Z,16.27
2018-11-04T16:32:41.984Z,17.30
2018-11-04T16:35:12.006Z,15.93
2018-11-04T16:37:41.655Z,16.10
2018-11-04T16:40:10.915Z,19.07
2018-11-04T16:42:39.794Z,17.87
2018-11-04T16:45:10.759Z,19.90
2018-11-04T16:47:40.280Z,21.17
2018-11-04T16:50:11.344Z,20.10
2018-11-04T16:52:40.076Z,22.10
2018-11-04T16:55:09.731Z,20.70
2018-11-04T16:57:38.216Z,20.87
2018-11-04T17:00:07.972Z,20.17
2018-11-04T17:02:36.986Z,20.53
2018-11-04T17:05:06.297Z,19.30
2018-11-04T17:07:34.803Z,20.10
2018-11-04T17:10:03.626Z,23.37
2018-11-04T17:12:32.192Z,22.40
2018-11-04T17:15:00.874Z,23.13
2018-11-04T17:17:31.010Z,24.13
2018-11-04T17:19:59.650Z,25.40
2018-11-04T17:22:29.517Z,26.50
2018-11-04T17:24:58.185Z,27.37
2018-11-04T17:27:26.780Z,26.70
2018-11-04T17:29:56.718Z,28.30
2018-11-04T17:32:26.552Z,29.10
2018-11-04T17:34:57.978Z,30.85
2018-11-04T17:49:03.287Z,28.60
2018-11-04T17:57:19.473Z,31.60
2018-11-04T17:59:48.466Z,32.80
2018-11-04T18:02:17.392Z,34.70
2018-11-04T18:04:45.999Z,34.97
2018-11-04T18:07:14.626Z,36.43
2018-11-04T18:09:43.384Z,38.40
2018-11-04T18:12:12.783Z,37.73
2018-11-04T18:23:19.636Z,33.67
2018-11-04T18:25:49.812Z,42.20
2018-11-04T18:30:54.048Z,37.23
2018-11-04T18:33:24.556Z,40.00
2018-11-04T18:35:53.141Z,39.07
2018-11-04T18:38:24.401Z,38.70
2018-11-04T18:40:54.640Z,39.10
2018-11-04T18:43:26.011Z,38.90
2018-11-04T18:45:57.388Z,41.50
2018-11-04T18:48:26.481Z,41.00
2018-11-04T18:50:55.108Z,41.17
2018-11-04T18:53:23.833Z,42.17
2018-11-04T18:55:52.452Z,44.33
2018-11-04T18:58:21.049Z,43.30
2018-11-04T19:00:49.641Z,42.10
2018-11-04T19:03:18.274Z,43.80
2018-11-04T19:08:14.744Z,41.33
2018-11-04T19:10:44.560Z,41.07
2018-11-04T19:13:13.158Z,39.87
2018-11-04T19:15:41.772Z,39.33
2018-11-04T19:18:11.817Z,43.70
2018-11-04T19:20:41.145Z,37.47
2018-11-04T19:23:11.194Z,37.10
2018-11-04T19:25:40.634Z,38.10
2018-11-04T19:28:09.262Z,40.63
2018-11-04T19:30:38.002Z,40.60
2018-11-04T19:33:06.596Z,41.30
2018-11-04T19:35:35.147Z,39.70
2018-11-04T19:38:05.142Z,39.13
2018-11-04T19:40:33.767Z,43.00
2018-11-04T19:50:25.834Z,42.60
2018-11-04T19:52:54.452Z,42.40
2018-11-04T20:17:47.014Z,44.00
2018-11-04T21:15:10.236Z,40.90
